createdAt,value
2019-05-13T00:00:03.768Z,5.49
2019-05-13T00:01:07.143Z,5.52
2019-05-13T00:02:04.685Z,5.52
2019-05-13T00:03:03.850Z,5.47
2019-05-13T00:04:03.703Z,5.46
2019-05-13T00:05:03.874Z,5.44
2019-05-13T00:06:04.188Z,5.43
2019-05-13T00:07:04.710Z,5.40
2019-05-13T00:08:03.740Z,5.34
2019-05-13T00:09:03.507Z,5.34
2019-05-13T00:10:04.080Z,5.33
2019-05-13T00:11:10.553Z,5.23
2019-05-13T00:12:04.716Z,5.18
2019-05-13T00:13:04.410Z,5.18
2019-05-13T00:14:04.439Z,5.04
2019-05-13T00:15:03.758Z,5.13
2019-05-13T00:16:03.723Z,5.01
2019-05-13T00:17:04.322Z,5.07
2019-05-13T00:18:04.017Z,4.97
2019-05-13T00:19:04.165Z,5.00
2019-05-13T00:20:04.005Z,4.89
2019-05-13T00:21:03.670Z,4.86
2019-05-13T00:22:03.879Z,4.94
2019-05-13T00:23:03.866Z,4.94
2019-05-13T00:24:04.085Z,4.89
2019-05-13T00:25:04.073Z,4.89
2019-05-13T00:26:03.864Z,4.89
2019-05-13T00:27:03.879Z,4.95
2019-05-13T00:28:04.038Z,4.83
2019-05-13T00:29:04.131Z,4.87
2019-05-13T00:30:04.269Z,4.95
2019-05-13T00:31:03.450Z,4.90
2019-05-13T00:32:04.779Z,4.95
2019-05-13T00:33:03.825Z,4.90
2019-05-13T00:34:03.772Z,4.83
2019-05-13T00:35:03.949Z,4.83
2019-05-13T00:36:03.974Z,4.83
2019-05-13T00:37:08.931Z,4.71
2019-05-13T00:38:04.144Z,4.78
2019-05-13T00:39:03.931Z,4.82
2019-05-13T00:40:03.986Z,4.83
2019-05-13T00:41:03.737Z,4.79
2019-05-13T00:43:24.469Z,4.74
2019-05-13T00:44:24.408Z,4.70
2019-05-13T00:45:24.479Z,4.64
2019-05-13T00:46:23.680Z,4.60
2019-05-13T00:47:23.667Z,4.60
2019-05-13T00:48:23.434Z,4.56
2019-05-13T00:49:23.829Z,4.49
2019-05-13T00:50:24.100Z,4.52
2019-05-13T00:51:24.427Z,4.46
2019-05-13T00:52:23.576Z,4.50
2019-05-13T00:53:23.753Z,4.49
2019-05-13T00:54:23.647Z,4.57
2019-05-13T00:55:23.762Z,4.58
2019-05-13T00:56:23.742Z,4.63
2019-05-13T00:57:23.838Z,4.53
2019-05-13T00:58:24.127Z,4.57
2019-05-13T00:59:24.259Z,4.61
2019-05-13T01:00:24.310Z,4.68
2019-05-13T01:01:24.289Z,4.70
2019-05-13T01:02:24.343Z,4.71
2019-05-13T01:03:25.343Z,4.84
2019-05-13T01:04:24.031Z,4.74
2019-05-13T01:05:23.439Z,4.76
2019-05-13T01:06:23.693Z,4.71
2019-05-13T01:07:28.535Z,4.75
2019-05-13T01:08:23.930Z,4.74
2019-05-13T01:09:23.712Z,4.67
2019-05-13T01:10:23.760Z,4.61
2019-05-13T01:11:23.679Z,4.58
2019-05-13T01:12:23.837Z,4.63
2019-05-13T01:13:34.763Z,4.53
2019-05-13T01:14:23.510Z,4.49
2019-05-13T01:15:24.730Z,4.50
2019-05-13T01:16:23.437Z,4.60
2019-05-13T01:17:31.125Z,4.53
2019-05-13T01:18:23.459Z,4.43
2019-05-13T01:19:23.689Z,4.49
2019-05-13T01:20:23.554Z,4.48
2019-05-13T01:21:23.883Z,4.46
2019-05-13T01:22:23.956Z,4.42
2019-05-13T01:23:24.090Z,4.40
2019-05-13T01:24:24.377Z,4.45
2019-05-13T01:25:24.380Z,4.48
2019-05-13T01:26:23.320Z,4.31
2019-05-13T01:27:23.914Z,4.45
2019-05-13T01:28:23.973Z,4.49
2019-05-13T01:29:23.771Z,4.46
2019-05-13T01:30:23.805Z,4.42
2019-05-13T01:31:23.810Z,4.30
2019-05-13T01:32:23.870Z,4.46
2019-05-13T01:33:23.510Z,4.25
2019-05-13T01:34:23.573Z,4.32
2019-05-13T01:35:23.595Z,4.38
2019-05-13T01:36:23.467Z,4.38
2019-05-13T01:37:23.510Z,4.34
2019-05-13T01:38:24.085Z,4.24
2019-05-13T01:39:24.301Z,4.31
2019-05-13T01:40:23.942Z,4.22
2019-05-13T01:41:24.054Z,4.24
2019-05-13T01:42:24.148Z,4.30
2019-05-13T01:43:24.471Z,4.30
2019-05-13T01:44:24.361Z,4.25
2019-05-13T01:45:24.055Z,4.31
2019-05-13T01:46:24.089Z,4.34
2019-05-13T01:47:24.091Z,4.30
2019-05-13T01:48:35.411Z,4.28
2019-05-13T01:49:24.122Z,4.31
2019-05-13T01:50:24.165Z,4.28
2019-05-13T01:51:29.445Z,4.25
2019-05-13T01:52:29.953Z,4.31
2019-05-13T01:53:24.376Z,4.28
2019-05-13T01:54:24.482Z,4.40
2019-05-13T01:55:24.401Z,4.43
2019-05-13T01:56:23.595Z,4.40
2019-05-13T01:57:23.763Z,4.43
2019-05-13T01:58:23.589Z,4.50
2019-05-13T01:59:23.970Z,4.53
2019-05-13T02:00:24.189Z,4.58
2019-05-13T02:01:24.127Z,4.61
2019-05-13T02:02:24.260Z,4.58
2019-05-13T02:03:24.667Z,4.57
2019-05-13T02:04:24.491Z,4.64
2019-05-13T02:05:24.118Z,4.63
2019-05-13T02:06:24.091Z,4.64
2019-05-13T02:07:24.285Z,4.63
2019-05-13T02:08:24.364Z,4.68
2019-05-13T02:09:24.306Z,4.74
2019-05-13T02:10:24.502Z,4.66
2019-05-13T02:11:23.944Z,4.70
2019-05-13T02:12:24.013Z,4.70
2019-05-13T02:13:24.373Z,4.71
2019-05-13T02:14:23.637Z,4.83
2019-05-13T02:15:23.265Z,4.79
2019-05-13T02:16:24.273Z,4.79
2019-05-13T02:17:23.445Z,4.75
2019-05-13T02:18:24.479Z,4.76
2019-05-13T02:19:24.297Z,4.83
2019-05-13T02:20:24.674Z,4.76
2019-05-13T02:21:24.105Z,4.82
2019-05-13T02:22:24.613Z,4.86
2019-05-13T02:23:34.232Z,4.89
2019-05-13T02:24:23.647Z,4.90
2019-05-13T02:25:23.738Z,4.75
2019-05-13T02:26:24.020Z,4.78
2019-05-13T02:27:22.065Z,4.90
2019-05-13T02:28:24.331Z,4.92
2019-05-13T02:29:24.301Z,4.89
2019-05-13T02:30:22.037Z,4.90
2019-05-13T02:31:32.031Z,5.00
2019-05-13T02:32:23.599Z,4.95
2019-05-13T02:33:23.161Z,5.04
2019-05-13T02:34:23.279Z,5.04
2019-05-13T02:35:23.136Z,5.15
2019-05-13T02:36:22.776Z,5.19
2019-05-13T02:37:23.211Z,5.23
2019-05-13T02:38:26.374Z,5.20
2019-05-13T02:39:22.970Z,5.25
2019-05-13T02:40:22.728Z,5.36
2019-05-13T02:41:22.750Z,5.43
2019-05-13T02:42:22.846Z,5.67
2019-05-13T02:43:23.156Z,6.20
2019-05-13T02:44:22.535Z,6.86
2019-05-13T02:45:22.704Z,7.58
2019-05-13T02:46:22.632Z,8.20
2019-05-13T02:47:22.573Z,8.95
2019-05-13T02:48:23.426Z,9.49
2019-05-13T02:49:23.070Z,9.85
2019-05-13T02:50:22.520Z,10.24
2019-05-13T02:51:22.988Z,10.23
2019-05-13T02:52:22.376Z,10.43
2019-05-13T02:53:23.788Z,10.39
2019-05-13T02:54:34.239Z,10.46
2019-05-13T02:55:22.390Z,10.48
2019-05-13T02:56:22.766Z,10.87
2019-05-13T02:57:23.387Z,11.27
2019-05-13T02:58:24.480Z,11.38
2019-05-13T02:59:22.668Z,11.52
2019-05-13T03:00:23.608Z,11.86
2019-05-13T03:01:22.388Z,12.32
2019-05-13T03:02:22.492Z,12.63
2019-05-13T03:03:23.075Z,12.61
2019-05-13T03:04:23.348Z,12.90
2019-05-13T03:05:22.042Z,13.13
2019-05-13T03:06:22.412Z,13.21
2019-05-13T03:07:23.255Z,13.50
2019-05-13T03:08:35.357Z,13.70
2019-05-13T03:09:23.065Z,13.78
2019-05-13T03:10:22.411Z,13.80
2019-05-13T03:11:22.801Z,13.91
2019-05-13T03:12:23.065Z,13.97
2019-05-13T03:13:23.392Z,14.22
2019-05-13T03:14:23.864Z,14.37
2019-05-13T03:15:23.099Z,14.41
2019-05-13T03:16:23.110Z,14.01
2019-05-13T03:17:22.309Z,14.26
2019-05-13T03:18:22.566Z,14.37
2019-05-13T03:19:22.491Z,14.61
2019-05-13T03:20:23.049Z,14.66
2019-05-13T03:21:23.123Z,14.63
2019-05-13T03:22:22.456Z,14.61
2019-05-13T03:23:22.802Z,14.73
2019-05-13T03:24:22.792Z,14.94
2019-05-13T03:25:34.278Z,15.22
2019-05-13T03:26:23.468Z,15.15
2019-05-13T03:27:24.841Z,15.30
2019-05-13T03:28:22.302Z,15.48
2019-05-13T03:29:22.274Z,15.41
2019-05-13T03:30:28.882Z,15.51
2019-05-13T03:31:26.337Z,15.52
2019-05-13T03:32:27.181Z,16.02
2019-05-13T03:33:28.082Z,16.18
2019-05-13T03:34:26.793Z,16.26
2019-05-13T03:35:27.121Z,16.16
2019-05-13T03:36:25.792Z,16.18
2019-05-13T03:37:26.427Z,15.90
2019-05-13T03:38:22.605Z,16.02
2019-05-13T03:39:22.432Z,16.05
2019-05-13T03:40:23.046Z,15.55
2019-05-13T03:41:22.864Z,15.98
2019-05-13T03:42:22.601Z,16.44
2019-05-13T03:43:22.923Z,16.37
2019-05-13T03:44:23.667Z,16.36
2019-05-13T03:45:21.979Z,16.18
2019-05-13T03:46:22.751Z,16.05
2019-05-13T03:47:23.121Z,15.80
2019-05-13T03:48:23.638Z,15.90
2019-05-13T03:49:23.247Z,16.43
2019-05-13T03:50:22.651Z,16.74
2019-05-13T03:51:22.213Z,16.58
2019-05-13T03:52:22.468Z,16.54
2019-05-13T03:53:23.455Z,16.89
2019-05-13T03:54:22.645Z,16.99
2019-05-13T03:55:22.914Z,17.19
2019-05-13T03:57:23.212Z,17.66
2019-05-13T03:58:23.634Z,17.23
2019-05-13T03:59:22.469Z,16.51
2019-05-13T04:00:23.182Z,16.68
2019-05-13T04:01:22.324Z,16.41
2019-05-13T04:02:22.614Z,16.83
2019-05-13T04:03:22.785Z,17.32
2019-05-13T04:04:23.301Z,17.78
2019-05-13T04:05:22.949Z,17.72
2019-05-13T04:06:22.343Z,17.22
2019-05-13T04:07:23.546Z,16.92
2019-05-13T04:08:22.777Z,17.35
2019-05-13T04:09:27.573Z,17.50
2019-05-13T04:10:23.025Z,17.71
2019-05-13T04:11:22.615Z,17.23
2019-05-13T04:12:22.824Z,17.34
2019-05-13T04:13:23.223Z,17.01
2019-05-13T04:14:22.936Z,16.86
2019-05-13T04:15:23.395Z,16.57
2019-05-13T04:16:23.349Z,16.41
2019-05-13T04:17:20.102Z,16.58
2019-05-13T04:18:23.276Z,17.35
2019-05-13T04:19:23.152Z,17.72
2019-05-13T04:20:23.075Z,17.47
2019-05-13T04:21:22.827Z,17.54
2019-05-13T04:22:22.955Z,18.26
2019-05-13T04:23:22.917Z,18.03
2019-05-13T04:24:22.977Z,18.27
2019-05-13T04:25:22.823Z,18.27
2019-05-13T04:26:23.209Z,18.12
2019-05-13T04:27:28.508Z,18.48
2019-05-13T04:28:22.222Z,18.24
2019-05-13T04:29:23.157Z,18.12
2019-05-13T04:30:22.324Z,18.03
2019-05-13T04:31:22.820Z,18.42
2019-05-13T04:32:22.720Z,18.61
2019-05-13T04:33:22.892Z,18.81
2019-05-13T04:34:22.985Z,19.08
2019-05-13T04:35:22.293Z,19.37
2019-05-13T04:36:23.071Z,19.04
2019-05-13T04:37:22.239Z,19.59
2019-05-13T04:38:22.637Z,19.42
2019-05-13T04:39:38.989Z,20.17
2019-05-13T04:40:23.170Z,19.60
2019-05-13T04:41:22.996Z,19.77
2019-05-13T04:42:23.017Z,20.26
2019-05-13T04:43:23.200Z,19.94
2019-05-13T04:44:23.651Z,19.47
2019-05-13T04:45:19.794Z,19.55
2019-05-13T04:46:22.808Z,19.94
2019-05-13T04:47:22.664Z,20.33
2019-05-13T04:48:22.603Z,20.21
2019-05-13T04:49:22.988Z,19.84
2019-05-13T04:50:22.487Z,19.30
2019-05-13T04:51:22.699Z,18.61
2019-05-13T04:52:22.310Z,18.85
2019-05-13T04:53:22.628Z,18.53
2019-05-13T04:54:22.630Z,18.58
2019-05-13T04:55:22.701Z,18.61
2019-05-13T04:56:22.354Z,18.66
2019-05-13T04:57:22.381Z,19.45
2019-05-13T04:58:32.393Z,19.77
2019-05-13T04:59:22.446Z,19.94
2019-05-13T05:00:22.546Z,20.19
2019-05-13T05:01:23.474Z,20.02
2019-05-13T05:02:22.341Z,20.24
2019-05-13T05:03:22.359Z,18.51
2019-05-13T05:04:28.692Z,18.96
2019-05-13T05:05:22.589Z,19.35
2019-05-13T05:06:22.442Z,19.81
2019-05-13T05:07:22.227Z,19.89
2019-05-13T05:08:22.246Z,19.63
2019-05-13T05:09:22.320Z,19.90
2019-05-13T05:10:30.294Z,20.24
2019-05-13T05:11:22.294Z,20.22
2019-05-13T05:12:19.509Z,20.32
2019-05-13T05:13:22.014Z,20.58
2019-05-13T05:14:22.277Z,20.49
2019-05-13T05:15:19.520Z,21.15
2019-05-13T05:16:21.908Z,21.04
2019-05-13T05:17:22.289Z,21.53
2019-05-13T05:18:21.991Z,21.92
2019-05-13T05:19:23.297Z,21.41
2019-05-13T05:20:22.915Z,21.19
2019-05-13T05:21:21.675Z,20.50
2019-05-13T05:22:19.422Z,20.21
2019-05-13T05:23:21.420Z,20.44
2019-05-13T05:24:21.998Z,19.99
2019-05-13T05:25:19.373Z,19.90
2019-05-13T05:26:19.458Z,20.68
2019-05-13T05:27:21.348Z,21.22
2019-05-13T05:28:21.635Z,21.50
2019-05-13T05:29:32.277Z,20.66
2019-05-13T05:30:21.689Z,20.59
2019-05-13T05:31:19.312Z,21.01
2019-05-13T05:32:21.425Z,20.60
2019-05-13T05:33:21.298Z,20.58
2019-05-13T05:34:21.574Z,21.05
2019-05-13T05:35:19.262Z,21.45
2019-05-13T05:36:21.671Z,21.28
2019-05-13T05:37:19.284Z,20.58
2019-05-13T05:38:22.450Z,21.26
2019-05-13T05:39:22.440Z,21.83
2019-05-13T05:40:30.511Z,21.22
2019-05-13T05:41:21.469Z,20.92
2019-05-13T05:42:21.611Z,20.77
2019-05-13T05:43:19.187Z,21.51
2019-05-13T05:44:21.327Z,21.97
2019-05-13T05:45:19.156Z,22.25
2019-05-13T05:46:21.832Z,22.21
2019-05-13T05:47:21.219Z,21.70
2019-05-13T05:48:19.167Z,21.30
2019-05-13T05:49:21.204Z,21.00
2019-05-13T05:50:19.127Z,21.01
2019-05-13T05:51:19.091Z,21.50
2019-05-13T05:52:21.115Z,21.97
2019-05-13T05:53:21.816Z,22.49
2019-05-13T05:54:21.660Z,22.49
2019-05-13T05:55:21.224Z,22.01
2019-05-13T05:56:19.204Z,21.54
2019-05-13T05:57:19.043Z,21.25
2019-05-13T05:58:19.021Z,21.56
2019-05-13T05:59:21.546Z,20.48
2019-05-13T06:00:32.402Z,19.42
2019-05-13T06:01:18.981Z,18.16
2019-05-13T06:02:18.994Z,17.86
2019-05-13T06:03:21.588Z,18.26
2019-05-13T06:04:21.434Z,17.93
2019-05-13T06:05:21.246Z,17.76
2019-05-13T06:06:18.929Z,17.54
2019-05-13T06:07:18.945Z,16.59
2019-05-13T06:08:18.912Z,16.29
2019-05-13T06:09:21.171Z,16.37
2019-05-13T06:10:18.904Z,16.55
2019-05-13T06:11:18.904Z,16.06
2019-05-13T06:12:21.210Z,15.11
2019-05-13T06:13:21.290Z,14.58
2019-05-13T06:14:18.843Z,14.22
2019-05-13T06:15:18.839Z,14.30
2019-05-13T06:16:21.639Z,14.12
2019-05-13T06:17:18.948Z,13.91
2019-05-13T06:18:18.870Z,13.80
2019-05-13T06:19:19.637Z,14.16
2019-05-13T06:20:20.973Z,14.34
2019-05-13T06:21:21.239Z,13.95
2019-05-13T06:22:18.758Z,13.83
2019-05-13T06:23:18.898Z,13.93
2019-05-13T06:24:18.734Z,13.68
2019-05-13T06:25:22.985Z,13.50
2019-05-13T06:26:18.856Z,13.21
2019-05-13T06:27:21.167Z,13.05
2019-05-13T06:28:18.711Z,12.81
2019-05-13T06:29:18.681Z,12.95
2019-05-13T06:30:21.522Z,12.73
2019-05-13T06:31:32.266Z,12.86
2019-05-13T06:32:25.343Z,12.81
2019-05-13T06:33:21.171Z,12.63
2019-05-13T06:34:18.703Z,12.86
2019-05-13T06:35:18.615Z,12.62
2019-05-13T06:36:18.658Z,12.15
2019-05-13T06:37:18.635Z,12.05
2019-05-13T06:38:18.583Z,11.96
2019-05-13T06:39:18.586Z,11.99
2019-05-13T06:40:18.561Z,12.05
2019-05-13T06:41:18.558Z,12.20
2019-05-13T06:42:18.539Z,12.26
2019-05-13T06:43:21.157Z,12.32
2019-05-13T06:44:18.515Z,12.12
2019-05-13T06:45:18.508Z,12.28
2019-05-13T06:46:18.506Z,12.14
2019-05-13T06:47:18.521Z,12.15
2019-05-13T06:48:18.489Z,12.73
2019-05-13T06:49:18.606Z,12.93
2019-05-13T06:50:18.494Z,12.94
2019-05-13T06:51:18.440Z,13.08
2019-05-13T06:52:18.455Z,13.16
2019-05-13T06:53:18.419Z,12.93
2019-05-13T06:54:18.445Z,12.86
2019-05-13T06:55:18.395Z,12.50
2019-05-13T06:56:18.408Z,12.35
2019-05-13T06:57:18.374Z,12.05
2019-05-13T06:58:18.446Z,12.00
2019-05-13T06:59:18.452Z,11.93
2019-05-13T07:00:18.386Z,11.91
2019-05-13T07:01:18.335Z,11.81
2019-05-13T07:02:32.108Z,11.93
2019-05-13T07:03:18.306Z,11.59
2019-05-13T07:04:18.589Z,11.40
2019-05-13T07:05:18.285Z,11.41
2019-05-13T07:06:18.417Z,11.56
2019-05-13T07:07:21.690Z,11.55
2019-05-13T07:08:18.290Z,11.67
2019-05-13T07:09:21.630Z,11.91
2019-05-13T07:10:21.476Z,12.14
2019-05-13T07:11:21.609Z,12.32
2019-05-13T07:12:21.726Z,12.33
2019-05-13T07:13:18.199Z,12.40
2019-05-13T07:14:18.218Z,12.39
2019-05-13T07:15:18.180Z,12.35
2019-05-13T07:16:18.216Z,12.17
2019-05-13T07:17:18.164Z,12.17
2019-05-13T07:18:18.140Z,12.33
2019-05-13T07:19:18.126Z,12.50
2019-05-13T07:20:18.118Z,12.58
2019-05-13T07:21:18.112Z,12.35
2019-05-13T07:22:18.107Z,12.40
2019-05-13T07:23:18.087Z,11.95
2019-05-13T07:24:18.076Z,11.85
2019-05-13T07:25:18.060Z,11.71
2019-05-13T07:26:18.073Z,11.74
2019-05-13T07:27:18.105Z,11.77
2019-05-13T07:28:18.030Z,12.17
2019-05-13T07:29:18.565Z,12.20
2019-05-13T07:30:18.597Z,12.32
2019-05-13T07:31:18.019Z,12.14
2019-05-13T07:32:18.003Z,12.02
2019-05-13T07:33:32.172Z,11.80
2019-05-13T07:34:17.982Z,11.58
2019-05-13T07:35:17.954Z,11.49
2019-05-13T07:36:17.939Z,11.93
2019-05-13T07:37:17.933Z,12.12
2019-05-13T07:38:17.942Z,11.93
2019-05-13T07:39:17.947Z,11.99
2019-05-13T07:40:17.976Z,12.23
2019-05-13T07:41:32.252Z,12.39
2019-05-13T07:42:18.884Z,12.30
2019-05-13T07:43:17.871Z,12.51
2019-05-13T07:44:17.876Z,12.57
2019-05-13T07:45:17.847Z,12.51
2019-05-13T07:46:17.872Z,12.51
2019-05-13T07:47:17.945Z,12.39
2019-05-13T07:48:21.422Z,12.18
2019-05-13T07:49:18.801Z,12.33
2019-05-13T07:50:17.801Z,12.23
2019-05-13T07:51:17.782Z,12.20
2019-05-13T07:52:17.767Z,12.14
2019-05-13T07:53:19.219Z,12.21
2019-05-13T07:54:17.751Z,12.53
2019-05-13T07:55:17.743Z,12.36
2019-05-13T07:56:17.724Z,12.36
2019-05-13T07:57:17.752Z,12.30
2019-05-13T07:58:18.324Z,12.53
2019-05-13T07:59:17.707Z,12.84
2019-05-13T08:00:17.686Z,12.76
2019-05-13T08:01:17.739Z,12.32
2019-05-13T08:02:17.687Z,12.03
2019-05-13T08:03:17.653Z,12.14
2019-05-13T08:04:33.541Z,12.28
2019-05-13T08:05:17.919Z,12.26
2019-05-13T08:06:17.659Z,12.32
2019-05-13T08:07:17.617Z,12.32
2019-05-13T08:08:17.591Z,12.47
2019-05-13T08:09:17.686Z,12.65
2019-05-13T08:10:17.575Z,12.81
2019-05-13T08:11:17.556Z,12.86
2019-05-13T08:12:17.622Z,12.81
2019-05-13T08:13:17.545Z,12.65
2019-05-13T08:14:17.519Z,12.54
2019-05-13T08:15:17.525Z,12.35
2019-05-13T08:16:17.516Z,12.36
2019-05-13T08:17:17.503Z,12.43
2019-05-13T08:18:26.919Z,12.25
2019-05-13T08:19:18.303Z,12.33
2019-05-13T08:20:17.929Z,12.33
2019-05-13T08:21:17.449Z,12.11
2019-05-13T08:22:18.428Z,12.28
2019-05-13T08:23:17.415Z,12.37
2019-05-13T08:24:18.080Z,12.43
2019-05-13T08:25:17.419Z,12.53
2019-05-13T08:26:17.405Z,12.54
2019-05-13T08:27:21.630Z,12.55
2019-05-13T08:28:18.445Z,12.50
2019-05-13T08:29:18.085Z,12.70
2019-05-13T08:30:18.211Z,12.70
2019-05-13T08:31:17.343Z,12.83
2019-05-13T08:32:17.524Z,12.75
2019-05-13T08:33:17.571Z,12.62
2019-05-13T08:34:17.445Z,12.84
2019-05-13T08:35:17.368Z,12.93
2019-05-13T08:36:17.458Z,12.73
2019-05-13T08:37:18.395Z,12.75
2019-05-13T08:38:17.461Z,12.76
2019-05-13T08:39:18.019Z,12.91
2019-05-13T08:40:20.144Z,13.11
2019-05-13T08:41:19.577Z,13.24
2019-05-13T08:42:20.174Z,13.30
2019-05-13T08:43:18.281Z,13.30
2019-05-13T08:44:17.232Z,13.30
2019-05-13T08:45:17.222Z,13.21
2019-05-13T08:46:17.191Z,13.13
2019-05-13T08:47:17.548Z,13.26
2019-05-13T08:48:17.154Z,13.17
2019-05-13T08:49:29.377Z,13.06
2019-05-13T08:50:17.199Z,13.02
2019-05-13T08:51:17.278Z,13.19
2019-05-13T08:52:17.117Z,13.24
2019-05-13T08:53:17.159Z,13.33
2019-05-13T08:54:17.140Z,13.36
2019-05-13T08:55:17.097Z,13.47
2019-05-13T08:56:17.828Z,13.43
2019-05-13T08:57:17.349Z,13.37
2019-05-13T08:58:17.137Z,13.24
2019-05-13T08:59:17.240Z,13.33
2019-05-13T09:00:17.172Z,13.31
2019-05-13T09:01:22.502Z,13.23
2019-05-13T09:03:27.412Z,13.47
2019-05-13T09:04:26.809Z,13.50
2019-05-13T09:05:26.752Z,13.73
2019-05-13T09:06:26.784Z,14.08
2019-05-13T09:07:26.744Z,14.53
2019-05-13T09:08:26.735Z,14.51
2019-05-13T09:09:26.725Z,13.86
2019-05-13T09:10:26.702Z,13.95
2019-05-13T09:11:26.754Z,13.94
2019-05-13T09:12:32.218Z,13.71
2019-05-13T09:13:27.660Z,13.71
2019-05-13T09:14:26.656Z,13.42
2019-05-13T09:15:26.692Z,13.50
2019-05-13T09:16:26.631Z,13.49
2019-05-13T09:17:26.705Z,13.47
2019-05-13T09:18:26.783Z,13.73
2019-05-13T09:19:27.037Z,13.97
2019-05-13T09:20:26.638Z,13.93
2019-05-13T09:21:26.618Z,13.67
2019-05-13T09:22:26.610Z,13.65
2019-05-13T09:23:26.630Z,13.71
2019-05-13T09:24:34.241Z,13.73
2019-05-13T09:25:27.727Z,13.57
2019-05-13T09:26:26.759Z,13.39
2019-05-13T09:27:26.526Z,13.28
2019-05-13T09:28:26.590Z,13.16
2019-05-13T09:29:26.507Z,13.21
2019-05-13T09:30:27.365Z,13.68
2019-05-13T09:31:26.468Z,13.67
2019-05-13T09:32:26.471Z,13.89
2019-05-13T09:33:34.031Z,13.91
2019-05-13T09:34:26.436Z,13.70
2019-05-13T09:35:26.436Z,13.70
2019-05-13T09:36:26.409Z,13.83
2019-05-13T09:37:26.397Z,14.00
2019-05-13T09:38:26.386Z,13.97
2019-05-13T09:39:26.398Z,14.25
2019-05-13T09:40:26.413Z,14.04
2019-05-13T09:41:26.394Z,13.98
2019-05-13T09:42:26.339Z,14.04
2019-05-13T09:43:26.334Z,13.79
2019-05-13T09:44:26.326Z,13.76
2019-05-13T09:45:26.322Z,13.65
2019-05-13T09:46:26.300Z,13.65
2019-05-13T09:47:28.481Z,13.52
2019-05-13T09:48:26.276Z,13.55
2019-05-13T09:49:26.325Z,13.65
2019-05-13T09:50:32.148Z,13.67
2019-05-13T09:51:27.245Z,13.80
2019-05-13T09:52:26.287Z,13.85
2019-05-13T09:53:26.225Z,13.78
2019-05-13T09:54:26.209Z,13.87
2019-05-13T09:55:29.161Z,13.75
2019-05-13T09:56:26.189Z,13.70
2019-05-13T09:57:26.216Z,13.68
2019-05-13T09:58:29.265Z,13.97
2019-05-13T09:59:26.152Z,14.12
2019-05-13T10:00:26.144Z,14.13
2019-05-13T10:01:26.139Z,14.07
2019-05-13T10:02:26.128Z,14.11
2019-05-13T10:03:29.558Z,14.34
2019-05-13T10:05:40.760Z,14.00
2019-05-13T10:06:42.081Z,13.68
2019-05-13T10:07:42.566Z,13.55
2019-05-13T10:08:41.850Z,13.76
2019-05-13T10:09:42.924Z,13.91
2019-05-13T10:10:42.405Z,14.00
2019-05-13T10:11:40.686Z,14.18
2019-05-13T10:12:42.445Z,14.34
2019-05-13T10:13:40.651Z,13.86
2019-05-13T10:14:40.645Z,13.52
2019-05-13T10:15:42.004Z,13.60
2019-05-13T10:16:42.552Z,13.70
2019-05-13T10:17:42.676Z,13.79
2019-05-13T10:18:42.025Z,13.86
2019-05-13T10:19:42.064Z,13.78
2019-05-13T10:20:42.089Z,13.73
2019-05-13T10:21:42.070Z,13.83
2019-05-13T10:22:41.823Z,13.95
2019-05-13T10:23:41.843Z,13.97
2019-05-13T10:24:42.381Z,13.94
2019-05-13T10:25:40.519Z,13.76
2019-05-13T10:26:42.875Z,13.78
2019-05-13T10:27:41.862Z,13.75
2019-05-13T10:28:42.653Z,13.70
2019-05-13T10:29:42.452Z,13.80
2019-05-13T10:30:43.803Z,13.94
2019-05-13T10:31:42.017Z,13.97
2019-05-13T10:32:42.586Z,13.97
2019-05-13T10:33:42.035Z,14.08
2019-05-13T10:34:42.633Z,14.08
2019-05-13T10:35:53.555Z,14.00
2019-05-13T10:36:42.112Z,14.22
2019-05-13T10:37:41.798Z,14.18
2019-05-13T10:38:41.466Z,14.45
2019-05-13T10:39:40.424Z,14.52
2019-05-13T10:40:43.060Z,14.56
2019-05-13T10:41:42.404Z,14.63
2019-05-13T10:42:43.153Z,14.59
2019-05-13T10:43:44.006Z,14.48
2019-05-13T10:44:42.240Z,14.79
2019-05-13T10:45:41.664Z,14.41
2019-05-13T10:46:42.533Z,14.40
2019-05-13T10:47:42.355Z,14.26
2019-05-13T10:48:41.705Z,14.41
2019-05-13T10:49:42.536Z,14.37
2019-05-13T10:50:41.868Z,14.36
2019-05-13T10:51:41.823Z,14.07
2019-05-13T10:52:42.732Z,14.11
2019-05-13T10:53:42.621Z,14.07
2019-05-13T10:54:41.541Z,13.94
2019-05-13T10:55:42.298Z,13.89
2019-05-13T10:56:42.934Z,14.04
2019-05-13T10:57:42.421Z,14.22
2019-05-13T10:58:42.609Z,14.43
2019-05-13T10:59:40.266Z,14.37
2019-05-13T11:00:42.324Z,14.13
2019-05-13T11:01:42.611Z,14.16
2019-05-13T11:02:42.396Z,14.33
2019-05-13T11:03:42.725Z,14.51
2019-05-13T11:04:41.808Z,14.49
2019-05-13T11:05:42.112Z,14.81
2019-05-13T11:06:53.083Z,14.90
2019-05-13T11:07:42.073Z,14.93
2019-05-13T11:08:42.253Z,14.44
2019-05-13T11:09:41.800Z,13.85
2019-05-13T11:10:42.126Z,13.73
2019-05-13T11:11:41.365Z,13.78
2019-05-13T11:12:41.874Z,13.65
2019-05-13T11:13:52.280Z,13.68
2019-05-13T11:14:42.197Z,13.79
2019-05-13T11:15:44.663Z,13.67
2019-05-13T11:16:42.641Z,13.60
2019-05-13T11:17:42.472Z,13.70
2019-05-13T11:18:39.930Z,13.98
2019-05-13T11:19:39.923Z,13.76
2019-05-13T11:20:41.881Z,13.89
2019-05-13T11:21:43.093Z,14.08
2019-05-13T11:22:39.930Z,14.12
2019-05-13T11:23:39.898Z,14.28
2019-05-13T11:24:42.880Z,14.40
2019-05-13T11:25:41.592Z,14.55
2019-05-13T11:26:41.832Z,14.52
2019-05-13T11:27:42.200Z,14.22
2019-05-13T11:28:42.682Z,14.18
2019-05-13T11:29:41.515Z,14.45
2019-05-13T11:30:42.191Z,14.40
2019-05-13T11:31:42.504Z,14.45
2019-05-13T11:32:42.420Z,13.89
2019-05-13T11:33:42.265Z,13.71
2019-05-13T11:34:41.967Z,13.75
2019-05-13T11:35:41.508Z,13.67
2019-05-13T11:36:43.064Z,13.64
2019-05-13T11:37:52.641Z,13.57
2019-05-13T11:38:39.735Z,13.45
2019-05-13T11:39:39.700Z,13.46
2019-05-13T11:40:39.690Z,13.45
2019-05-13T11:41:42.471Z,13.43
2019-05-13T11:42:42.168Z,13.31
2019-05-13T11:43:41.360Z,13.43
2019-05-13T11:44:40.066Z,13.58
2019-05-13T11:45:41.549Z,13.70
2019-05-13T11:46:42.067Z,13.65
2019-05-13T11:47:41.530Z,13.64
2019-05-13T11:48:42.104Z,13.61
2019-05-13T11:49:42.341Z,13.49
2019-05-13T11:50:42.884Z,13.36
2019-05-13T11:52:52.233Z,13.13
2019-05-13T11:53:49.330Z,13.11
2019-05-13T11:54:49.323Z,13.17
2019-05-13T11:55:52.035Z,13.27
2019-05-13T11:56:55.631Z,13.31
2019-05-13T11:57:53.179Z,13.39
2019-05-13T11:58:49.294Z,13.36
2019-05-13T11:59:52.397Z,13.43
2019-05-13T12:00:52.767Z,13.31
2019-05-13T12:01:49.240Z,13.40
2019-05-13T12:02:52.027Z,13.52
2019-05-13T12:03:53.186Z,13.36
2019-05-13T12:04:49.209Z,13.47
2019-05-13T12:05:49.196Z,13.36
2019-05-13T12:06:54.075Z,13.20
2019-05-13T12:07:53.466Z,13.21
2019-05-13T12:08:52.138Z,13.31
2019-05-13T12:09:51.875Z,13.60
2019-05-13T12:10:51.206Z,13.67
2019-05-13T12:11:49.134Z,13.83
2019-05-13T12:12:49.129Z,13.93
2019-05-13T12:13:52.498Z,13.70
2019-05-13T12:15:20.510Z,13.45
2019-05-13T12:15:53.371Z,13.30
2019-05-13T12:16:49.106Z,13.20
2019-05-13T12:17:49.065Z,13.36
2019-05-13T12:18:51.205Z,13.62
2019-05-13T12:19:49.041Z,13.64
2019-05-13T12:20:49.040Z,13.37
2019-05-13T12:21:49.020Z,13.26
2019-05-13T12:22:56.111Z,13.28
2019-05-13T12:23:48.993Z,13.39
2019-05-13T12:24:48.991Z,13.42
2019-05-13T12:25:52.567Z,13.23
2019-05-13T12:26:52.842Z,13.37
2019-05-13T12:27:51.368Z,13.17
2019-05-13T12:28:53.208Z,13.42
2019-05-13T12:29:51.911Z,13.47
2019-05-13T12:30:48.926Z,13.33
2019-05-13T12:31:52.336Z,13.28
2019-05-13T12:32:48.898Z,13.40
2019-05-13T12:33:51.976Z,13.19
2019-05-13T12:34:48.877Z,13.12
2019-05-13T12:35:52.561Z,13.17
2019-05-13T12:36:48.847Z,13.09
2019-05-13T12:37:48.840Z,13.16
2019-05-13T12:38:48.825Z,13.09
2019-05-13T12:39:49.634Z,13.39
2019-05-13T12:40:52.469Z,13.16
2019-05-13T12:41:48.812Z,13.02
2019-05-13T12:42:48.782Z,13.11
2019-05-13T12:43:48.773Z,13.23
2019-05-13T12:45:04.037Z,12.95
2019-05-13T12:45:53.027Z,12.80
2019-05-13T12:46:50.343Z,12.94
2019-05-13T12:47:50.307Z,12.65
2019-05-13T12:48:48.714Z,12.75
2019-05-13T12:49:48.707Z,12.83
2019-05-13T12:50:48.732Z,12.90
2019-05-13T12:51:48.690Z,12.91
2019-05-13T12:52:50.929Z,12.87
2019-05-13T12:54:03.764Z,12.87
2019-05-13T12:54:48.645Z,12.75
2019-05-13T12:55:55.774Z,12.63
2019-05-13T12:56:52.183Z,12.72
2019-05-13T12:57:48.617Z,12.68
2019-05-13T12:58:48.609Z,12.65
2019-05-13T12:59:48.597Z,12.69
2019-05-13T13:00:48.588Z,12.47
2019-05-13T13:01:48.585Z,12.21
2019-05-13T13:02:51.551Z,12.15
2019-05-13T13:03:48.547Z,11.99